Time;durP1;ratioP1;P1;durP2;ratioP2;P2;SDS_P1;SDS_P2;PMS_P1;PMS_P2;Temp;Humidity;BMP_temperature;BMP_pressure;BME280_temperature;BME280_humidity;BME280_pressure;Samples;Min_cycle;Max_cycle;Signal;HPM_P1;HPM_P2
2021/01/29 00:02:41;;;;;;;23.50;14.63;;;2.70;99.90;;;;;;6124059;29;20480;-56
2021/01/29 00:05:51;;;;;;;21.13;15.77;;;2.80;99.90;;;;;;6133317;28;20475;-56
2021/01/29 00:08:54;;;;;;;18.03;13.97;;;2.80;99.90;;;;;;6131736;29;20947;-56
2021/01/29 00:11:56;;;;;;;22.47;14.43;;;2.90;99.90;;;;;;6132558;28;20475;-56
2021/01/29 00:14:59;;;;;;;23.93;15.63;;;2.90;99.90;;;;;;6131908;29;20475;-56
2021/01/29 00:18:03;;;;;;;19.23;15.93;;;2.90;99.90;;;;;;6132035;29;20495;-56
2021/01/29 00:21:07;;;;;;;20.47;14.03;;;2.80;99.90;;;;;;6131772;29;20490;-55
2021/01/29 00:24:10;;;;;;;19.17;14.20;;;2.80;99.90;;;;;;6127536;29;20913;-54
2021/01/29 00:27:12;;;;;;;18.57;14.83;;;2.80;99.90;;;;;;6121714;28;20472;-54
2021/01/29 00:30:17;;;;;;;23.67;16.00;;;2.80;99.90;;;;;;6130404;29;20480;-56
2021/01/29 00:33:22;;;;;;;19.03;16.10;;;2.80;99.90;;;;;;6131891;29;20479;-56
2021/01/29 00:36:25;;;;;;;18.17;15.13;;;2.70;99.90;;;;;;6131352;28;20487;-56
2021/01/29 00:39:27;;;;;;;18.30;14.20;;;2.70;99.90;;;;;;6131191;28;20471;-56
2021/01/29 00:42:30;;;;;;;20.30;14.83;;;2.70;99.90;;;;;;6131256;28;20998;-56
2021/01/29 00:45:34;;;;;;;17.70;13.47;;;2.70;99.90;;;;;;6131763;28;20510;-55
2021/01/29 00:48:36;;;;;;;19.63;14.50;;;2.70;99.90;;;;;;6126880;28;20846;-56
2021/01/29 00:51:39;;;;;;;16.37;14.50;;;2.70;99.90;;;;;;6115474;29;20480;-56
2021/01/29 00:54:42;;;;;;;15.63;13.03;;;2.70;99.90;;;;;;6116107;29;20567;-56
2021/01/29 00:57:44;;;;;;;16.17;13.37;;;2.70;99.90;;;;;;6120713;29;20882;-56
2021/01/29 01:00:47;;;;;;;19.43;12.77;;;2.70;99.90;;;;;;6130508;29;20480;-55
2021/01/29 01:03:49;;;;;;;19.23;13.20;;;2.70;99.90;;;;;;6109776;29;20477;-55
2021/01/29 01:06:52;;;;;;;21.47;15.10;;;2.70;99.90;;;;;;6107279;29;20965;-55
2021/01/29 01:09:54;;;;;;;15.93;12.53;;;2.70;99.90;;;;;;6120374;28;20487;-56
2021/01/29 01:12:57;;;;;;;15.80;12.17;;;2.60;99.90;;;;;;6126816;29;20487;-55
2021/01/29 01:15:59;;;;;;;16.40;11.00;;;2.50;99.90;;;;;;6104692;29;20480;-57
2021/01/29 01:19:01;;;;;;;13.23;11.40;;;2.20;99.90;;;;;;6104674;29;20490;-57
2021/01/29 01:22:06;;;;;;;14.33;11.27;;;2.10;99.90;;;;;;6104718;29;20481;-57
2021/01/29 01:25:09;;;;;;;15.47;11.90;;;2.30;99.90;;;;;;6105646;29;20960;-56
2021/01/29 01:28:12;;;;;;;14.87;10.87;;;2.40;99.90;;;;;;6107007;29;20500;-57
2021/01/29 01:31:14;;;;;;;11.70;9.53;;;2.40;99.90;;;;;;6102657;29;20488;-57
2021/01/29 01:34:16;;;;;;;14.30;11.87;;;2.50;99.90;;;;;;6119284;29;20964;-56
2021/01/29 01:37:20;;;;;;;16.47;11.20;;;2.50;99.90;;;;;;6115618;28;20471;-56
2021/01/29 01:40:25;;;;;;;14.60;10.87;;;2.60;99.90;;;;;;6118801;29;20831;-56
2021/01/29 01:43:28;;;;;;;12.10;11.00;;;2.60;99.90;;;;;;6118579;28;20486;-57
2021/01/29 01:46:31;;;;;;;15.03;10.97;;;2.60;99.90;;;;;;6117035;29;20948;-56
2021/01/29 01:49:36;;;;;;;11.67;10.47;;;2.60;99.90;;;;;;6120094;29;20484;-55
2021/01/29 01:52:41;;;;;;;14.27;11.10;;;2.50;99.90;;;;;;6112674;28;20905;-55
2021/01/29 01:55:45;;;;;;;15.63;13.07;;;2.50;99.90;;;;;;6106088;29;20524;-55
2021/01/29 01:58:52;;;;;;;12.33;11.27;;;2.50;99.90;;;;;;6106243;29;20489;-56
2021/01/29 02:01:56;;;;;;;15.03;11.77;;;2.40;99.90;;;;;;6106111;29;20969;-56
2021/01/29 02:05:05;;;;;;;11.63;10.37;;;2.30;99.90;;;;;;6106075;29;21082;-56
2021/01/29 02:08:10;;;;;;;13.67;9.97;;;2.30;99.90;;;;;;6106102;29;20429;-56
2021/01/29 02:11:14;;;;;;;10.57;9.47;;;2.30;99.90;;;;;;6105732;29;20449;-56
2021/01/29 02:14:16;;;;;;;13.63;10.17;;;2.30;99.90;;;;;;6105796;29;20775;-56
2021/01/29 02:17:40;;;;;;;12.03;10.80;;;2.30;99.90;;;;;;6106015;29;20436;-56
2021/01/29 02:21:00;;;;;;;12.07;10.87;;;2.40;99.90;;;;;;6105512;29;20819;-57
2021/01/29 02:24:38;;;;;;;13.70;10.80;;;2.40;99.90;;;;;;6105632;29;20982;-56
2021/01/29 02:27:49;;;;;;;12.50;10.67;;;2.40;99.90;;;;;;6105797;29;20480;-56
2021/01/29 02:31:17;;;;;;;13.40;10.47;;;2.30;99.90;;;;;;6105248;29;20536;-56
2021/01/29 02:35:00;;;;;;;9.80;8.80;;;2.30;99.90;;;;;;6105742;29;20488;-56
2021/01/29 02:38:55;;;;;;;11.40;9.70;;;2.40;99.90;;;;;;6056645;29;20479;-56
2021/01/29 02:42:29;;;;;;;11.90;10.37;;;2.40;99.90;;;;;;6105612;29;20472;-55
2021/01/29 02:45:38;;;;;;;12.33;8.67;;;2.40;99.90;;;;;;6106056;29;20495;-55
2021/01/29 02:48:55;;;;;;;10.10;9.10;;;2.40;99.90;;;;;;6105681;29;20468;-56
2021/01/29 02:52:01;;;;;;;12.90;10.27;;;2.40;99.90;;;;;;6106149;29;20480;-56
2021/01/29 02:55:13;;;;;;;12.47;9.70;;;2.40;99.90;;;;;;6105310;29;20494;-56
2021/01/29 02:58:22;;;;;;;10.50;8.10;;;2.30;99.90;;;;;;6105534;29;20548;-56
2021/01/29 03:01:32;;;;;;;10.93;9.83;;;2.40;99.90;;;;;;6105427;29;20476;-56
2021/01/29 03:04:41;;;;;;;13.50;10.70;;;2.40;99.90;;;;;;6105464;29;20480;-56
2021/01/29 03:07:50;;;;;;;14.40;10.33;;;2.50;99.90;;;;;;6105484;29;20481;-55
2021/01/29 03:11:04;;;;;;;12.13;10.20;;;2.50;99.90;;;;;;6105215;29;20481;-56
2021/01/29 03:14:12;;;;;;;13.23;9.73;;;2.50;99.90;;;;;;6105455;29;20452;-56
2021/01/29 03:17:21;;;;;;;12.37;10.10;;;2.50;99.90;;;;;;6106025;29;20766;-55
2021/01/29 03:20:30;;;;;;;12.40;9.57;;;2.40;99.90;;;;;;6105244;29;20568;-55
2021/01/29 03:23:37;;;;;;;11.60;10.40;;;2.40;99.90;;;;;;6105079;29;20922;-55
2021/01/29 03:26:50;;;;;;;12.97;10.00;;;2.40;99.90;;;;;;6105547;29;20465;-56
2021/01/29 03:29:59;;;;;;;13.63;11.00;;;2.40;99.90;;;;;;6105247;29;20493;-55
2021/01/29 03:33:03;;;;;;;11.70;10.50;;;2.40;99.90;;;;;;6104875;29;20465;-56
2021/01/29 03:36:08;;;;;;;12.63;10.53;;;2.50;99.90;;;;;;6105014;29;20472;-56
2021/01/29 03:39:16;;;;;;;14.10;10.40;;;2.50;99.90;;;;;;6104989;29;20488;-55
2021/01/29 03:42:28;;;;;;;11.30;10.20;;;2.50;99.90;;;;;;6108170;29;20484;-55
2021/01/29 03:45:41;;;;;;;14.77;13.27;;;2.60;99.90;;;;;;6109293;29;20989;-55
2021/01/29 03:48:53;;;;;;;11.77;10.67;;;2.50;99.90;;;;;;6113222;29;20484;-56
2021/01/29 03:52:07;;;;;;;22.67;11.43;;;2.50;99.90;;;;;;6109532;29;20476;-55
2021/01/29 03:55:19;;;;;;;13.20;9.87;;;2.50;99.90;;;;;;6131207;28;20984;-55
2021/01/29 03:58:31;;;;;;;8.63;7.80;;;2.50;99.90;;;;;;6132467;28;20498;-56
2021/01/29 04:01:45;;;;;;;8.90;7.53;;;2.50;99.90;;;;;;6132496;28;20489;-56
2021/01/29 04:04:57;;;;;;;10.13;7.87;;;2.50;99.90;;;;;;6132399;28;20838;-55
2021/01/29 04:08:07;;;;;;;10.20;8.67;;;2.50;99.90;;;;;;6132830;28;20476;-55
2021/01/29 04:11:14;;;;;;;7.93;7.13;;;2.40;99.90;;;;;;6132404;28;20458;-55
2021/01/29 04:14:22;;;;;;;8.80;7.27;;;2.40;99.90;;;;;;6132195;28;20764;-56
2021/01/29 04:17:31;;;;;;;7.40;6.77;;;2.40;99.90;;;;;;6132190;28;20455;-55
2021/01/29 04:20:40;;;;;;;8.63;7.77;;;2.40;99.90;;;;;;6131853;28;20471;-55
2021/01/29 04:23:48;;;;;;;9.10;8.20;;;2.40;99.90;;;;;;6131967;28;20472;-56
2021/01/29 04:26:53;;;;;;;10.77;8.90;;;2.40;99.90;;;;;;6132283;28;20479;-56
2021/01/29 04:30:02;;;;;;;9.57;8.57;;;2.50;99.90;;;;;;6132056;28;20489;-55
2021/01/29 04:33:11;;;;;;;11.60;7.63;;;2.50;99.90;;;;;;6131825;28;20495;-56
2021/01/29 04:36:16;;;;;;;9.43;8.43;;;2.40;99.90;;;;;;6132291;28;20527;-56
2021/01/29 04:39:25;;;;;;;9.50;7.67;;;2.40;99.90;;;;;;6131979;28;20479;-56
2021/01/29 04:42:49;;;;;;;9.10;6.50;;;2.40;99.90;;;;;;6123703;28;20468;-55
2021/01/29 04:46:10;;;;;;;7.80;6.97;;;2.40;99.90;;;;;;6132168;28;20793;-56
2021/01/29 04:49:24;;;;;;;8.00;6.40;;;2.40;99.90;;;;;;6131650;28;20558;-55
2021/01/29 04:52:54;;;;;;;6.47;5.80;;;2.40;99.90;;;;;;6131819;28;20479;-55
2021/01/29 04:56:20;;;;;;;9.43;7.50;;;2.50;99.90;;;;;;6131263;28;21015;-55
2021/01/29 04:59:45;;;;;;;7.03;6.30;;;2.50;99.90;;;;;;6131005;28;20991;-56
2021/01/29 05:03:20;;;;;;;7.13;6.30;;;2.50;99.90;;;;;;6131560;28;20560;-56
2021/01/29 05:06:38;;;;;;;7.00;6.10;;;2.50;99.90;;;;;;6131062;28;20568;-56
2021/01/29 05:10:25;;;;;;;7.23;6.43;;;2.40;99.90;;;;;;6131294;28;20502;-55
2021/01/29 05:14:00;;;;;;;6.80;5.93;;;2.20;99.90;;;;;;6121747;28;20476;-55
2021/01/29 05:17:35;;;;;;;6.23;5.63;;;2.30;99.90;;;;;;6130923;28;20480;-55
2021/01/29 05:21:13;;;;;;;6.97;6.27;;;2.40;99.90;;;;;;6128418;28;20898;-55
2021/01/29 05:24:41;;;;;;;7.60;6.17;;;2.40;99.90;;;;;;6122521;28;20475;-56
2021/01/29 05:28:10;;;;;;;6.47;5.50;;;2.40;99.90;;;;;;6131012;28;20482;-56
2021/01/29 05:31:28;;;;;;;6.90;6.20;;;2.50;99.90;;;;;;6093069;29;20476;-55
2021/01/29 05:34:49;;;;;;;6.70;6.03;;;2.60;99.90;;;;;;6130552;28;20464;-55
2021/01/29 05:38:26;;;;;;;7.10;6.40;;;2.50;99.90;;;;;;6130009;28;20975;-56
2021/01/29 05:41:57;;;;;;;7.17;6.47;;;2.60;99.90;;;;;;6129689;28;20464;-55
2021/01/29 05:45:43;;;;;;;8.63;6.03;;;2.60;99.90;;;;;;6121883;28;20460;-57
2021/01/29 05:49:11;;;;;;;6.33;5.73;;;2.60;99.90;;;;;;6063352;29;20566;-56
2021/01/29 05:52:44;;;;;;;8.20;6.57;;;2.50;99.90;;;;;;6130442;28;20474;-56
2021/01/29 05:55:54;;;;;;;7.13;6.13;;;2.60;99.90;;;;;;6129976;28;20488;-56
2021/01/29 05:59:34;;;;;;;6.50;5.90;;;2.70;99.90;;;;;;6129903;28;20480;-56
2021/01/29 06:03:07;;;;;;;8.53;6.67;;;2.60;99.90;;;;;;6115252;28;20991;-56
2021/01/29 06:06:37;;;;;;;8.97;7.40;;;2.70;99.90;;;;;;6118080;28;21084;-56
2021/01/29 06:10:06;;;;;;;8.87;6.70;;;2.70;99.90;;;;;;6129507;28;20795;-56
2021/01/29 06:13:44;;;;;;;8.00;7.20;;;2.70;99.90;;;;;;6104713;29;20558;-56
2021/01/29 06:17:13;;;;;;;7.50;6.30;;;2.70;99.90;;;;;;6107195;29;20484;-56
2021/01/29 06:20:46;;;;;;;7.90;7.20;;;2.70;99.90;;;;;;6129486;28;20574;-56
2021/01/29 06:24:13;;;;;;;6.77;6.10;;;2.80;99.90;;;;;;6129391;28;20479;-56
2021/01/29 06:27:29;;;;;;;9.80;7.60;;;2.70;99.90;;;;;;6117584;28;20475;-56
2021/01/29 06:31:15;;;;;;;8.33;6.97;;;2.70;99.90;;;;;;6129570;28;20559;-56
2021/01/29 06:34:32;;;;;;;9.13;7.80;;;2.70;99.90;;;;;;6102251;29;20488;-56
2021/01/29 06:37:45;;;;;;;8.33;5.70;;;2.80;99.90;;;;;;6129491;28;20547;-56
2021/01/29 06:40:58;;;;;;;9.43;7.37;;;2.80;99.90;;;;;;6128797;28;20479;-56
2021/01/29 06:44:14;;;;;;;10.33;7.20;;;2.80;99.90;;;;;;6129336;28;20471;-56
2021/01/29 06:47:41;;;;;;;8.07;6.37;;;2.90;99.90;;;;;;6125085;28;20898;-57
2021/01/29 06:51:34;;;;;;;9.53;7.80;;;3.00;99.90;;;;;;6129396;28;20469;-56
2021/01/29 06:55:09;;;;;;;9.67;7.90;;;3.00;99.90;;;;;;6028153;29;20470;-56
2021/01/29 06:58:50;;;;;;;8.40;7.20;;;3.10;99.90;;;;;;6070824;29;20934;-55
2021/01/29 07:02:11;;;;;;;8.53;7.37;;;3.20;99.90;;;;;;6097869;29;20471;-55
2021/01/29 07:05:45;;;;;;;8.93;6.70;;;3.20;99.90;;;;;;6129217;28;20456;-56
2021/01/29 07:09:02;;;;;;;8.87;6.97;;;3.30;99.90;;;;;;6114451;28;20498;-56
2021/01/29 07:12:22;;;;;;;11.50;8.13;;;3.40;99.90;;;;;;6128756;28;20483;-56
2021/01/29 07:15:35;;;;;;;9.60;8.50;;;3.50;99.90;;;;;;6130722;28;20492;-55
2021/01/29 07:19:02;;;;;;;13.67;8.67;;;3.60;99.90;;;;;;6133609;28;20487;-55
2021/01/29 07:22:55;;;;;;;10.10;8.10;;;3.60;99.90;;;;;;6133376;28;20488;-55
2021/01/29 07:26:11;;;;;;;11.50;7.53;;;3.70;99.90;;;;;;6061085;29;20556;-55
2021/01/29 07:29:31;;;;;;;9.17;8.10;;;3.80;99.90;;;;;;6068933;28;20476;-56
2021/01/29 07:32:44;;;;;;;8.20;7.40;;;3.80;99.90;;;;;;6134591;28;20486;-57
2021/01/29 07:36:02;;;;;;;9.07;7.90;;;3.90;99.90;;;;;;6133394;28;20490;-56
2021/01/29 07:39:34;;;;;;;8.33;7.53;;;4.00;99.90;;;;;;6133117;28;20483;-56
2021/01/29 07:42:51;;;;;;;12.33;8.30;;;4.10;99.90;;;;;;6133286;28;20472;-56
2021/01/29 07:46:13;;;;;;;12.90;8.67;;;4.20;99.90;;;;;;6126244;28;20476;-56
2021/01/29 07:49:27;;;;;;;9.57;8.50;;;4.20;99.90;;;;;;6121892;28;20481;-56
2021/01/29 07:52:43;;;;;;;10.00;8.43;;;4.20;99.90;;;;;;6131517;28;20976;-56
2021/01/29 07:56:24;;;;;;;11.70;8.07;;;4.20;99.90;;;;;;6112537;28;20484;-57
2021/01/29 07:59:50;;;;;;;11.83;9.97;;;4.30;99.90;;;;;;6132442;28;20943;-57
2021/01/29 08:03:32;;;;;;;8.43;6.70;;;4.30;99.90;;;;;;6132409;28;20968;-57
2021/01/29 08:06:45;;;;;;;9.73;6.93;;;4.40;99.90;;;;;;6132512;28;20968;-57
2021/01/29 08:09:54;;;;;;;8.07;7.33;;;4.40;99.90;;;;;;6132261;28;20490;-57
2021/01/29 08:13:05;;;;;;;9.77;7.70;;;4.40;99.90;;;;;;6132434;28;20472;-57
2021/01/29 08:16:48;;;;;;;15.10;13.80;;;4.40;99.90;;;;;;6128528;28;20559;-60
2021/01/29 08:20:03;;;;;;;16.73;15.10;;;4.40;99.90;;;;;;6120636;29;20472;-58
2021/01/29 08:23:17;;;;;;;9.90;8.97;;;4.40;99.90;;;;;;6131195;28;20480;-59
2021/01/29 08:26:34;;;;;;;14.20;11.20;;;4.40;99.90;;;;;;6117017;29;20460;-59
2021/01/29 08:30:09;;;;;;;15.13;13.70;;;4.50;99.90;;;;;;6108203;29;20973;-58
2021/01/29 08:33:33;;;;;;;13.23;11.93;;;4.60;99.90;;;;;;6102252;29;20617;-59
2021/01/29 08:36:43;;;;;;;11.93;10.07;;;4.80;99.90;;;;;;6100197;29;20487;-59
2021/01/29 08:39:55;;;;;;;11.73;10.50;;;4.90;99.90;;;;;;6131911;28;20499;-57
2021/01/29 08:43:36;;;;;;;15.97;11.27;;;5.00;99.90;;;;;;6131536;29;20480;-59
2021/01/29 08:47:00;;;;;;;14.07;9.27;;;4.80;99.90;;;;;;6131096;29;20555;-59
2021/01/29 08:50:23;;;;;;;11.13;9.17;;;4.80;99.90;;;;;;6131413;29;20480;-59
2021/01/29 08:53:58;;;;;;;12.37;11.07;;;4.80;99.90;;;;;;6107892;29;20457;-58
2021/01/29 08:57:12;;;;;;;19.60;13.07;;;4.80;99.90;;;;;;6107819;29;20958;-59
2021/01/29 09:00:23;;;;;;;20.53;12.93;;;4.40;99.90;;;;;;6107701;29;20481;-57
2021/01/29 09:03:32;;;;;;;16.50;12.73;;;4.20;99.90;;;;;;6107927;29;20531;-56
2021/01/29 09:06:40;;;;;;;14.83;12.13;;;4.10;99.90;;;;;;6107379;29;20995;-56
2021/01/29 09:09:43;;;;;;;17.80;14.07;;;4.00;99.90;;;;;;6107521;29;20597;-55
2021/01/29 09:12:46;;;;;;;22.13;13.20;;;4.10;99.90;;;;;;6107469;29;20523;-56
2021/01/29 09:15:57;;;;;;;18.70;14.87;;;4.00;99.90;;;;;;6107056;29;20977;-56
2021/01/29 09:19:05;;;;;;;17.57;14.37;;;4.00;99.90;;;;;;6124069;29;20976;-56
2021/01/29 09:22:17;;;;;;;25.53;14.30;;;4.00;99.90;;;;;;6115613;29;20491;-56
2021/01/29 09:25:26;;;;;;;19.47;14.47;;;4.00;99.90;;;;;;6121539;28;20543;-56
2021/01/29 09:28:31;;;;;;;16.13;13.43;;;4.10;99.90;;;;;;6116455;28;20485;-56
2021/01/29 09:31:37;;;;;;;15.90;13.33;;;4.30;99.90;;;;;;6109932;28;20571;-56
2021/01/29 09:34:43;;;;;;;16.00;13.60;;;4.40;99.90;;;;;;6109176;29;20492;-55
2021/01/29 09:37:50;;;;;;;18.20;13.03;;;4.50;99.90;;;;;;6121507;28;20555;-56
2021/01/29 09:41:12;;;;;;;16.27;12.93;;;4.80;99.90;;;;;;6123856;28;20966;-56
2021/01/29 09:44:23;;;;;;;15.17;12.97;;;4.80;99.90;;;;;;6117197;28;20457;-56
2021/01/29 09:47:28;;;;;;;14.77;12.63;;;4.80;99.90;;;;;;6112665;29;20468;-57
2021/01/29 09:50:33;;;;;;;14.27;11.43;;;4.80;99.90;;;;;;6106709;29;20526;-56
2021/01/29 09:53:44;;;;;;;13.00;10.80;;;5.00;99.90;;;;;;6124452;29;20579;-57
2021/01/29 09:56:54;;;;;;;15.60;11.20;;;5.10;99.90;;;;;;6129862;29;20797;-57
2021/01/29 10:00:08;;;;;;;14.87;11.63;;;5.20;99.90;;;;;;6129961;29;20490;-56
2021/01/29 10:03:33;;;;;;;12.17;10.07;;;5.30;99.90;;;;;;6129962;29;20483;-56
2021/01/29 10:06:39;;;;;;;10.37;9.47;;;5.50;99.90;;;;;;6129434;29;20487;-56
2021/01/29 10:09:52;;;;;;;12.20;10.87;;;5.60;99.90;;;;;;6129618;29;20490;-56
2021/01/29 10:13:01;;;;;;;12.63;9.07;;;5.70;99.90;;;;;;6129441;29;20816;-56
2021/01/29 10:16:35;;;;;;;11.50;10.10;;;5.90;99.90;;;;;;6123606;28;20480;-56
2021/01/29 10:19:42;;;;;;;11.70;10.10;;;6.20;99.90;;;;;;6048009;29;20475;-56
2021/01/29 10:23:06;;;;;;;12.33;11.13;;;6.50;99.90;;;;;;6114366;29;20486;-56
2021/01/29 10:26:17;;;;;;;12.00;9.93;;;6.70;99.90;;;;;;6115785;28;20440;-56
2021/01/29 10:29:22;;;;;;;10.60;9.10;;;6.90;99.90;;;;;;6116113;29;20464;-56
2021/01/29 10:32:27;;;;;;;13.53;10.50;;;7.00;99.90;;;;;;6115364;28;20436;-56
2021/01/29 10:35:37;;;;;;;37.33;20.50;;;7.10;99.90;;;;;;6114473;29;20469;-57
2021/01/29 10:38:46;;;;;;;49.93;27.20;;;7.00;99.90;;;;;;6109553;29;20476;-56
2021/01/29 10:41:55;;;;;;;69.63;35.47;;;6.80;99.90;;;;;;6128960;29;20495;-59
2021/01/29 10:44:57;;;;;;;44.70;26.27;;;6.90;99.90;;;;;;6128855;28;20515;-57
2021/01/29 10:48:15;;;;;;;23.70;15.50;;;6.90;99.90;;;;;;6129422;29;20471;-58
2021/01/29 10:51:31;;;;;;;27.03;14.90;;;6.80;99.90;;;;;;6128494;28;20484;-58
2021/01/29 10:54:37;;;;;;;33.53;21.57;;;6.70;99.90;;;;;;6128870;29;21053;-56
2021/01/29 10:57:47;;;;;;;28.83;17.70;;;6.70;99.90;;;;;;6128865;29;20964;-60
2021/01/29 11:00:54;;;;;;;24.50;16.67;;;6.70;99.90;;;;;;6128654;29;20480;-59
2021/01/29 11:04:04;;;;;;;21.07;14.10;;;6.80;99.90;;;;;;6119720;29;20480;-57
2021/01/29 11:07:16;;;;;;;16.43;13.03;;;6.70;99.90;;;;;;6128645;28;20490;-58
2021/01/29 11:10:31;;;;;;;29.90;17.90;;;6.80;99.90;;;;;;6128596;29;20479;-58
2021/01/29 11:14:03;;;;;;;32.10;20.30;;;6.70;99.90;;;;;;6117124;29;20479;-58
2021/01/29 11:17:08;;;;;;;79.63;38.23;;;6.70;99.90;;;;;;6118571;29;20968;-58
2021/01/29 11:20:18;;;;;;;32.53;21.77;;;6.60;99.90;;;;;;6105149;29;20476;-58
2021/01/29 11:23:30;;;;;;;20.80;14.77;;;6.60;99.90;;;;;;6105461;29;20447;-58
2021/01/29 11:26:36;;;;;;;16.30;13.83;;;6.60;99.90;;;;;;6114649;28;20472;-58
2021/01/29 11:29:44;;;;;;;18.03;13.30;;;6.70;99.90;;;;;;6128962;28;20532;-58
2021/01/29 11:32:53;;;;;;;14.73;13.00;;;6.80;99.90;;;;;;6128703;28;20531;-60
2021/01/29 11:36:01;;;;;;;16.30;14.70;;;7.00;99.90;;;;;;6128612;28;20980;-59
2021/01/29 11:39:14;;;;;;;14.33;11.90;;;7.10;99.90;;;;;;6128501;28;20490;-59
2021/01/29 11:42:23;;;;;;;12.83;11.47;;;7.20;99.90;;;;;;6128624;28;20488;-59
2021/01/29 11:45:28;;;;;;;15.10;13.20;;;7.40;99.90;;;;;;6128971;28;20486;-60
2021/01/29 11:48:39;;;;;;;14.37;12.93;;;7.60;99.90;;;;;;6128412;28;20577;-60
2021/01/29 11:51:56;;;;;;;15.47;11.97;;;7.80;99.90;;;;;;6128296;28;20494;-61
2021/01/29 11:55:07;;;;;;;13.00;10.77;;;8.30;99.90;;;;;;6128069;28;20816;-59
2021/01/29 11:58:16;;;;;;;14.57;11.83;;;8.80;99.90;;;;;;6128153;28;20824;-59
2021/01/29 12:01:26;;;;;;;14.37;11.77;;;9.00;99.30;;;;;;6128435;28;20472;-59
2021/01/29 12:04:38;;;;;;;14.00;10.80;;;9.40;98.60;;;;;;6132481;28;20480;-59
2021/01/29 12:07:46;;;;;;;13.10;11.80;;;9.60;98.10;;;;;;6124016;28;20474;-59
2021/01/29 12:10:59;;;;;;;13.00;10.73;;;9.60;97.40;;;;;;6132139;28;20842;-58
2021/01/29 12:14:12;;;;;;;10.83;9.83;;;9.50;97.80;;;;;;6132301;28;20483;-58
2021/01/29 12:17:14;;;;;;;12.70;10.50;;;9.30;97.50;;;;;;6132248;28;20472;-57
2021/01/29 12:20:22;;;;;;;12.27;11.00;;;9.20;98.20;;;;;;6109367;29;20464;-58
2021/01/29 12:23:40;;;;;;;13.50;11.70;;;9.20;97.90;;;;;;6131927;29;20502;-55
2021/01/29 12:26:52;;;;;;;12.33;11.07;;;9.20;97.90;;;;;;6151284;28;20566;-59
2021/01/29 12:30:00;;;;;;;16.10;12.57;;;9.10;97.70;;;;;;6155628;28;20820;-58
2021/01/29 12:33:08;;;;;;;20.17;15.43;;;8.90;97.90;;;;;;6147453;28;20473;-57
2021/01/29 12:36:12;;;;;;;21.00;17.30;;;8.60;98.40;;;;;;6155772;28;20493;-59
2021/01/29 12:39:23;;;;;;;19.40;17.10;;;8.50;98.80;;;;;;6155511;28;20490;-57
2021/01/29 12:42:43;;;;;;;23.10;16.80;;;8.50;99.20;;;;;;6155628;28;20630;-57
2021/01/29 12:45:52;;;;;;;18.77;16.23;;;8.50;98.80;;;;;;6155609;28;20482;-59
2021/01/29 12:49:00;;;;;;;21.27;15.80;;;8.50;98.80;;;;;;6155496;28;20851;-57
2021/01/29 12:52:08;;;;;;;19.20;17.03;;;8.50;99.10;;;;;;6155414;28;20541;-57
2021/01/29 12:55:15;;;;;;;16.87;15.13;;;8.50;99.10;;;;;;6155033;28;21000;-58
2021/01/29 12:58:20;;;;;;;19.60;15.93;;;8.70;99.20;;;;;;6155300;28;20939;-58
2021/01/29 13:01:52;;;;;;;17.03;15.30;;;10.00;98.10;;;;;;6155259;28;20478;-58
2021/01/29 13:05:02;;;;;;;16.80;15.13;;;12.80;94.20;;;;;;6136254;29;20493;-56
2021/01/29 13:08:28;;;;;;;30.50;16.90;;;15.70;85.80;;;;;;6155188;28;20483;-59
2021/01/29 13:11:43;;;;;;;16.50;14.80;;;16.70;75.20;;;;;;6154958;28;20901;-61
2021/01/29 13:15:02;;;;;;;17.80;14.60;;;16.40;71.10;;;;;;6154503;28;20475;-60
2021/01/29 13:18:13;;;;;;;16.30;14.30;;;15.40;71.20;;;;;;6154233;28;20476;-60
2021/01/29 13:21:22;;;;;;;17.23;15.40;;;14.40;73.80;;;;;;6130508;29;20564;-60
2021/01/29 13:24:29;;;;;;;16.73;13.87;;;13.40;76.60;;;;;;6152667;28;20967;-60
2021/01/29 13:27:34;;;;;;;17.73;15.77;;;12.60;79.40;;;;;;6130746;29;20515;-60
2021/01/29 13:30:39;;;;;;;19.70;17.20;;;12.10;82.50;;;;;;6130635;29;20814;-59
2021/01/29 13:33:51;;;;;;;20.70;14.90;;;11.70;85.20;;;;;;6130716;29;20522;-61
2021/01/29 13:37:01;;;;;;;15.03;13.40;;;11.60;85.60;;;;;;6130237;29;20802;-60
2021/01/29 13:40:06;;;;;;;17.40;13.20;;;11.30;85.30;;;;;;6132196;29;20567;-60
2021/01/29 13:43:20;;;;;;;15.50;13.93;;;11.00;86.40;;;;;;6154330;28;20477;-60
2021/01/29 13:46:31;;;;;;;19.27;15.10;;;10.80;87.60;;;;;;6153910;28;20819;-60
2021/01/29 13:49:36;;;;;;;19.67;16.77;;;10.60;89.00;;;;;;6153865;28;20562;-60
2021/01/29 13:52:48;;;;;;;16.50;14.13;;;10.40;90.10;;;;;;6153632;28;20489;-60
2021/01/29 13:55:55;;;;;;;30.10;25.87;;;10.20;90.30;;;;;;6153527;28;20482;-61
2021/01/29 13:59:04;;;;;;;21.67;19.40;;;10.00;90.90;;;;;;6153722;28;20479;-60
2021/01/29 14:02:29;;;;;;;18.83;16.60;;;9.80;91.90;;;;;;6153727;28;20478;-60
2021/01/29 14:05:31;;;;;;;19.13;15.77;;;9.40;92.60;;;;;;6153706;28;20459;-60
2021/01/29 14:08:36;;;;;;;27.30;16.77;;;9.10;93.20;;;;;;6153782;28;20475;-60
2021/01/29 14:11:51;;;;;;;20.10;16.70;;;9.10;93.90;;;;;;6153363;28;20862;-59
2021/01/29 14:15:03;;;;;;;19.50;16.90;;;8.90;94.80;;;;;;6139738;28;20520;-60
2021/01/29 14:18:22;;;;;;;19.70;15.87;;;8.80;94.90;;;;;;6152653;28;20475;-59
2021/01/29 14:21:31;;;;;;;18.73;16.77;;;8.60;95.20;;;;;;6129288;29;20487;-59
2021/01/29 14:24:54;;;;;;;17.43;15.83;;;8.50;95.50;;;;;;6130639;29;20490;-57
2021/01/29 14:28:06;;;;;;;20.67;17.63;;;8.50;96.00;;;;;;6153511;28;20487;-59
2021/01/29 14:31:18;;;;;;;17.40;15.73;;;8.40;96.20;;;;;;6153158;28;20550;-58
2021/01/29 14:34:43;;;;;;;19.87;17.13;;;8.40;96.40;;;;;;6152869;28;20823;-59
2021/01/29 14:38:02;;;;;;;19.07;17.10;;;8.30;96.90;;;;;;6153153;28;20490;-60
2021/01/29 14:41:14;;;;;;;20.27;17.50;;;8.20;97.10;;;;;;6152897;28;20475;-60
2021/01/29 14:44:57;;;;;;;20.13;16.47;;;8.10;97.40;;;;;;6152894;28;20448;-58
2021/01/29 14:48:36;;;;;;;20.63;16.43;;;8.10;97.80;;;;;;6056825;29;20482;-56
2021/01/29 14:51:45;;;;;;;18.73;16.57;;;7.90;98.10;;;;;;6152488;28;20549;-55
2021/01/29 14:54:58;;;;;;;25.33;18.23;;;7.90;98.40;;;;;;6152402;28;20805;-56
2021/01/29 14:58:02;;;;;;;23.10;17.07;;;7.80;98.60;;;;;;6152847;28;20979;-54
2021/01/29 15:01:10;;;;;;;19.43;16.30;;;7.70;98.80;;;;;;6152415;28;20905;-55
2021/01/29 15:04:17;;;;;;;21.43;18.73;;;7.70;99.00;;;;;;6152586;28;20490;-56
2021/01/29 15:07:22;;;;;;;19.90;17.87;;;7.70;99.20;;;;;;6152793;28;20474;-56
2021/01/29 15:10:27;;;;;;;25.47;19.00;;;7.60;99.30;;;;;;6152170;28;20489;-56
2021/01/29 15:13:46;;;;;;;32.80;21.87;;;7.50;99.40;;;;;;6152552;28;20471;-56
2021/01/29 15:16:53;;;;;;;27.33;21.57;;;7.60;99.60;;;;;;6152306;28;20483;-59
2021/01/29 15:20:30;;;;;;;22.40;19.07;;;7.50;99.90;;;;;;6128045;28;20494;-60
2021/01/29 15:23:36;;;;;;;22.77;17.70;;;7.40;99.90;;;;;;6033494;29;20588;-60
2021/01/29 15:26:52;;;;;;;24.10;19.67;;;7.40;99.90;;;;;;6051231;29;20474;-61
2021/01/29 15:29:57;;;;;;;21.83;17.80;;;7.40;99.90;;;;;;6152516;28;20856;-59
2021/01/29 15:32:59;;;;;;;30.80;22.27;;;7.30;99.90;;;;;;6152530;28;20485;-57
2021/01/29 15:36:29;;;;;;;26.73;20.97;;;7.30;99.90;;;;;;6153584;28;20473;-58
2021/01/29 15:39:35;;;;;;;29.10;23.10;;;7.20;99.90;;;;;;6152984;28;20474;-59
2021/01/29 15:42:41;;;;;;;30.80;26.90;;;7.20;99.90;;;;;;6156576;28;20459;-59
2021/01/29 15:45:56;;;;;;;35.30;26.73;;;7.20;99.90;;;;;;6156701;28;20984;-58
2021/01/29 15:49:01;;;;;;;27.07;21.47;;;7.10;99.90;;;;;;6156157;28;20490;-59
2021/01/29 15:52:06;;;;;;;30.17;23.50;;;7.10;99.90;;;;;;6146646;28;20956;-60
2021/01/29 15:55:22;;;;;;;34.77;28.00;;;7.00;99.90;;;;;;6149797;28;20526;-58
2021/01/29 15:58:27;;;;;;;59.07;48.00;;;7.00;99.90;;;;;;6156051;28;20474;-58
2021/01/29 16:01:36;;;;;;;52.93;47.67;;;7.00;99.90;;;;;;6132424;29;20487;-58
2021/01/29 16:04:41;;;;;;;36.53;29.13;;;6.90;99.90;;;;;;6132448;29;21085;-58
2021/01/29 16:07:57;;;;;;;37.67;28.00;;;6.90;99.90;;;;;;6144999;28;20532;-59
2021/01/29 16:11:20;;;;;;;40.87;34.30;;;6.80;99.90;;;;;;6155128;28;20561;-58
2021/01/29 16:14:26;;;;;;;36.30;31.53;;;6.80;99.90;;;;;;6155630;28;20491;-58
2021/01/29 16:17:32;;;;;;;35.90;32.30;;;6.70;99.90;;;;;;6155956;28;20474;-59
2021/01/29 16:20:38;;;;;;;27.93;25.13;;;6.70;99.90;;;;;;6111382;29;20508;-59
2021/01/29 16:23:42;;;;;;;27.20;22.47;;;6.70;99.90;;;;;;6135669;29;20517;-58
2021/01/29 16:26:49;;;;;;;20.67;18.50;;;6.60;99.90;;;;;;6136423;28;20566;-57
2021/01/29 16:29:55;;;;;;;29.77;20.27;;;6.40;99.90;;;;;;6131905;29;20483;-58
2021/01/29 16:33:04;;;;;;;30.13;20.73;;;6.40;99.90;;;;;;6132017;29;20482;-57
2021/01/29 16:36:10;;;;;;;29.67;19.47;;;6.30;99.90;;;;;;6131943;29;20484;-57
2021/01/29 16:39:19;;;;;;;26.40;19.80;;;6.30;99.90;;;;;;6131656;29;20480;-57
2021/01/29 16:42:25;;;;;;;22.47;16.90;;;6.30;99.90;;;;;;6131550;29;20505;-57